Open Full Screen Window  High Contrast Mode
Wind Gusting 00 knots
06
July 23, 2014 4:20 PM EDT
Weather Information
Wind Direction
  360 °
Wind Speed
  06 kt (7 mph)
Wind Gust
  00 kt (0 mph)
Altimeter
30.00 in
Visibility
10 SM
Temperature
26° C
79° F
Dewpoint
20° C
68° F
Humidity
70%
1hr Rain Fall
00.00 in.
24hr Rain Fall
00.01 in.
Sky Condition
Clear
VFR

METAR KI69 232020Z AUTO 36006KT 10SM CLR 26/20 A3000 RMK AO1

*Background is not an actual portrayal of the airport.